sensor_id;sensor_type;location;lat;lon;timestamp;pressure;altitude;pressure_sealevel;temperature;humidity
52651;BME280;38537;47.226;39.702;2023-03-01T00:01:24;101017.03;;;3.23;62.11
52651;BME280;38537;47.226;39.702;2023-03-01T00:03:54;101000.72;;;3.22;62.25
52651;BME280;38537;47.226;39.702;2023-03-01T00:06:23;101020.72;;;3.40;62.36
52651;BME280;38537;47.226;39.702;2023-03-01T00:08:50;101012.94;;;3.66;61.79
52651;BME280;38537;47.226;39.702;2023-03-01T00:11:20;101007.81;;;4.03;62.08
52651;BME280;38537;47.226;39.702;2023-03-01T00:13:51;101028.69;;;4.10;60.44
52651;BME280;38537;47.226;39.702;2023-03-01T00:16:27;101004.31;;;4.07;60.09
52651;BME280;38537;47.226;39.702;2023-03-01T00:18:56;100995.91;;;4.19;60.49
52651;BME280;38537;47.226;39.702;2023-03-01T00:21:25;100989.25;;;4.32;60.02
52651;BME280;38537;47.226;39.702;2023-03-01T00:23:53;100969.44;;;4.40;60.29
52651;BME280;38537;47.226;39.702;2023-03-01T00:26:22;101006.59;;;4.82;59.74
52651;BME280;38537;47.226;39.702;2023-03-01T00:28:50;100994.44;;;4.83;59.07
52651;BME280;38537;47.226;39.702;2023-03-01T00:31:20;100987.59;;;4.69;58.96
52651;BME280;38537;47.226;39.702;2023-03-01T00:33:48;101010.06;;;4.73;58.90
52651;BME280;38537;47.226;39.702;2023-03-01T00:36:15;100994.06;;;4.41;58.73
52651;BME280;38537;47.226;39.702;2023-03-01T00:38:44;100988.66;;;4.30;58.75
52651;BME280;38537;47.226;39.702;2023-03-01T00:41:14;100988.78;;;4.40;59.36
52651;BME280;38537;47.226;39.702;2023-03-01T00:43:42;101001.44;;;4.36;59.29
52651;BME280;38537;47.226;39.702;2023-03-01T00:46:18;100981.19;;;4.13;58.46
52651;BME280;38537;47.226;39.702;2023-03-01T00:48:46;100987.22;;;4.10;58.73
52651;BME280;38537;47.226;39.702;2023-03-01T00:51:27;101009.97;;;3.84;58.72
52651;BME280;38537;47.226;39.702;2023-03-01T00:53:59;100980.78;;;3.60;59.72
52651;BME280;38537;47.226;39.702;2023-03-01T00:56:28;100987.19;;;3.49;59.63
52651;BME280;38537;47.226;39.702;2023-03-01T00:58:59;100986.78;;;3.57;60.20
52651;BME280;38537;47.226;39.702;2023-03-01T01:01:28;100987.78;;;3.51;60.03
52651;BME280;38537;47.226;39.702;2023-03-01T01:04:04;100965.34;;;3.47;60.21
52651;BME280;38537;47.226;39.702;2023-03-01T01:06:40;100964.00;;;3.78;59.90
52651;BME280;38537;47.226;39.702;2023-03-01T01:09:15;100962.19;;;4.00;59.81
52651;BME280;38537;47.226;39.702;2023-03-01T01:11:48;100938.06;;;3.96;58.73
52651;BME280;38537;47.226;39.702;2023-03-01T01:14:17;100972.81;;;4.08;58.34
52651;BME280;38537;47.226;39.702;2023-03-01T01:16:44;100971.63;;;4.21;59.31
52651;BME280;38537;47.226;39.702;2023-03-01T01:19:12;100978.75;;;4.00;57.82
52651;BME280;38537;47.226;39.702;2023-03-01T01:21:40;100958.41;;;3.90;59.11
52651;BME280;38537;47.226;39.702;2023-03-01T01:24:11;100970.69;;;3.65;58.68
52651;BME280;38537;47.226;39.702;2023-03-01T01:26:38;100957.59;;;3.32;58.52
52651;BME280;38537;47.226;39.702;2023-03-01T01:29:07;100952.31;;;3.02;59.16
52651;BME280;38537;47.226;39.702;2023-03-01T01:31:35;100955.94;;;3.03;59.79
52651;BME280;38537;47.226;39.702;2023-03-01T01:34:06;100982.03;;;3.12;59.64
52651;BME280;38537;47.226;39.702;2023-03-01T01:36:34;100938.19;;;2.87;59.72
52651;BME280;38537;47.226;39.702;2023-03-01T01:39:01;100952.94;;;2.93;60.57
52651;BME280;38537;47.226;39.702;2023-03-01T01:41:30;100938.97;;;2.71;60.35
52651;BME280;38537;47.226;39.702;2023-03-01T01:44:17;100952.31;;;3.02;60.80
52651;BME280;38537;47.226;39.702;2023-03-01T01:47:05;100945.63;;;2.98;60.24
52651;BME280;38537;47.226;39.702;2023-03-01T01:49:54;100952.09;;;2.92;60.26
52651;BME280;38537;47.226;39.702;2023-03-01T01:52:34;100938.91;;;2.83;60.80
52651;BME280;38537;47.226;39.702;2023-03-01T01:57:37;100907.72;;;3.51;59.85
52651;BME280;38537;47.226;39.702;2023-03-01T02:00:17;100894.78;;;3.68;59.20
52651;BME280;38537;47.226;39.702;2023-03-01T02:02:47;100926.59;;;4.04;58.81
52651;BME280;38537;47.226;39.702;2023-03-01T02:08:05;100947.91;;;3.75;58.28
52651;BME280;38537;47.226;39.702;2023-03-01T02:10:34;100941.69;;;3.23;58.64
52651;BME280;38537;47.226;39.702;2023-03-01T02:13:02;100941.00;;;3.16;59.23
52651;BME280;38537;47.226;39.702;2023-03-01T02:15:35;100972.22;;;3.44;60.02
52651;BME280;38537;47.226;39.702;2023-03-01T02:18:03;100955.00;;;3.71;59.20
52651;BME280;38537;47.226;39.702;2023-03-01T02:23:39;100934.06;;;3.41;58.95
52651;BME280;38537;47.226;39.702;2023-03-01T02:26:28;100971.28;;;3.39;58.24
52651;BME280;38537;47.226;39.702;2023-03-01T02:28:59;100942.69;;;3.05;58.88
52651;BME280;38537;47.226;39.702;2023-03-01T02:31:26;100980.59;;;3.09;59.81
52651;BME280;38537;47.226;39.702;2023-03-01T02:34:19;100960.19;;;2.59;59.33
52651;BME280;38537;47.226;39.702;2023-03-01T02:36:49;100962.22;;;2.63;59.85
52651;BME280;38537;47.226;39.702;2023-03-01T02:39:23;100959.22;;;2.77;59.62
52651;BME280;38537;47.226;39.702;2023-03-01T02:41:53;100947.19;;;2.83;59.74
52651;BME280;38537;47.226;39.702;2023-03-01T02:44:22;100940.53;;;3.07;60.00
52651;BME280;38537;47.226;39.702;2023-03-01T02:46:53;100935.41;;;3.56;59.14
52651;BME280;38537;47.226;39.702;2023-03-01T02:49:27;100945.88;;;3.70;58.35
52651;BME280;38537;47.226;39.702;2023-03-01T02:54:47;100935.97;;;3.41;58.20
52651;BME280;38537;47.226;39.702;2023-03-01T02:57:18;100934.75;;;3.20;57.94
52651;BME280;38537;47.226;39.702;2023-03-01T02:59:46;100972.44;;;3.15;59.12
52651;BME280;38537;47.226;39.702;2023-03-01T03:02:23;100950.50;;;3.08;58.93
52651;BME280;38537;47.226;39.702;2023-03-01T03:05:19;100956.53;;;2.82;59.09
52651;BME280;38537;47.226;39.702;2023-03-01T03:07:50;100965.22;;;2.73;59.49
52651;BME280;38537;47.226;39.702;2023-03-01T03:10:21;100959.56;;;2.68;59.36
52651;BME280;38537;47.226;39.702;2023-03-01T03:12:57;100959.56;;;2.68;59.85
52651;BME280;38537;47.226;39.702;2023-03-01T03:15:26;100949.09;;;2.94;59.86
52651;BME280;38537;47.226;39.702;2023-03-01T03:17:55;100939.63;;;3.01;59.54
52651;BME280;38537;47.226;39.702;2023-03-01T03:20:25;100916.16;;;3.44;59.50
52651;BME280;38537;47.226;39.702;2023-03-01T03:22:54;100928.56;;;3.58;58.03
52651;BME280;38537;47.226;39.702;2023-03-01T03:25:22;100928.94;;;3.95;58.04
52651;BME280;38537;47.226;39.702;2023-03-01T03:27:51;100907.06;;;4.27;58.14
52651;BME280;38537;47.226;39.702;2023-03-01T03:30:27;100913.28;;;4.56;56.93
52651;BME280;38537;47.226;39.702;2023-03-01T03:32:56;100920.09;;;4.48;56.00
52651;BME280;38537;47.226;39.702;2023-03-01T03:35:32;100919.03;;;4.33;56.60
52651;BME280;38537;47.226;39.702;2023-03-01T03:38:04;100893.16;;;4.22;56.88
52651;BME280;38537;47.226;39.702;2023-03-01T03:40:40;100888.56;;;4.28;56.43
52651;BME280;38537;47.226;39.702;2023-03-01T03:43:29;100904.09;;;4.34;56.56
52651;BME280;38537;47.226;39.702;2023-03-01T03:45:56;100898.03;;;3.82;56.20
52651;BME280;38537;47.226;39.702;2023-03-01T03:48:27;100891.22;;;3.39;57.01
52651;BME280;38537;47.226;39.702;2023-03-01T03:50:56;100905.25;;;3.21;56.73
52651;BME280;38537;47.226;39.702;2023-03-01T03:53:31;100885.31;;;2.90;57.37
52651;BME280;38537;47.226;39.702;2023-03-01T03:55:59;100872.84;;;2.59;57.65
52651;BME280;38537;47.226;39.702;2023-03-01T03:58:27;100886.63;;;2.48;58.29
52651;BME280;38537;47.226;39.702;2023-03-01T04:00:55;100881.50;;;2.28;58.08
52651;BME280;38537;47.226;39.702;2023-03-01T04:03:26;100927.63;;;2.32;58.06
52651;BME280;38537;47.226;39.702;2023-03-01T04:05:57;100918.50;;;2.09;58.72
52651;BME280;38537;47.226;39.702;2023-03-01T04:08:25;100915.97;;;1.95;58.97
52651;BME280;38537;47.226;39.702;2023-03-01T04:10:58;100925.34;;;2.06;59.00
52651;BME280;38537;47.226;39.702;2023-03-01T04:13:27;100899.72;;;1.94;58.73
52651;BME280;38537;47.226;39.702;2023-03-01T04:15:55;100895.75;;;1.90;58.69
52651;BME280;38537;47.226;39.702;2023-03-01T04:18:23;100879.81;;;1.68;59.57
52651;BME280;38537;47.226;39.702;2023-03-01T04:20:53;100896.00;;;1.88;59.60
52651;BME280;38537;47.226;39.702;2023-03-01T04:23:22;100854.53;;;1.60;59.54
52651;BME280;38537;47.226;39.702;2023-03-01T04:25:52;100897.03;;;1.64;60.09
52651;BME280;38537;47.226;39.702;2023-03-01T04:28:34;100912.63;;;1.82;60.05
52651;BME280;38537;47.226;39.702;2023-03-01T04:31:07;100890.47;;;1.65;60.57
52651;BME280;38537;47.226;39.702;2023-03-01T04:33:54;100908.66;;;1.66;60.33
52651;BME280;38537;47.226;39.702;2023-03-01T04:36:25;100902.41;;;1.59;60.30
52651;BME280;38537;47.226;39.702;2023-03-01T04:38:53;100871.75;;;1.44;59.93
52651;BME280;38537;47.226;39.702;2023-03-01T04:41:22;100879.91;;;1.62;60.39
52651;BME280;38537;47.226;39.702;2023-03-01T04:43:50;100860.19;;;1.65;59.88
52651;BME280;38537;47.226;39.702;2023-03-01T04:46:19;100855.38;;;1.49;59.99
52651;BME280;38537;47.226;39.702;2023-03-01T04:48:47;100853.94;;;1.58;59.98
52651;BME280;38537;47.226;39.702;2023-03-01T04:51:15;100869.63;;;1.57;60.00
52651;BME280;38537;47.226;39.702;2023-03-01T04:53:43;100858.13;;;1.49;60.28
52651;BME280;38537;47.226;39.702;2023-03-01T04:56:11;100855.03;;;1.80;60.62
52651;BME280;38537;47.226;39.702;2023-03-01T04:58:41;100876.84;;;1.93;59.94
52651;BME280;38537;47.226;39.702;2023-03-01T05:01:14;100872.66;;;1.91;59.91
52651;BME280;38537;47.226;39.702;2023-03-01T05:03:44;100879.59;;;1.70;59.83
52651;BME280;38537;47.226;39.702;2023-03-01T05:06:12;100844.59;;;1.59;60.45
52651;BME280;38537;47.226;39.702;2023-03-01T05:08:41;100883.91;;;1.89;60.44
52651;BME280;38537;47.226;39.702;2023-03-01T05:11:09;100875.03;;;1.99;59.93
52651;BME280;38537;47.226;39.702;2023-03-01T05:13:38;100853.84;;;1.99;60.22
52651;BME280;38537;47.226;39.702;2023-03-01T05:16:06;100872.03;;;2.00;59.84
52651;BME280;38537;47.226;39.702;2023-03-01T05:18:39;100897.66;;;2.24;60.23
52651;BME280;38537;47.226;39.702;2023-03-01T05:21:09;100881.50;;;2.28;59.82
52651;BME280;38537;47.226;39.702;2023-03-01T05:23:37;100858.50;;;2.22;59.06
52651;BME280;38537;47.226;39.702;2023-03-01T05:26:06;100905.19;;;2.17;59.04
52651;BME280;38537;47.226;39.702;2023-03-01T05:28:48;100899.34;;;2.02;59.17
52651;BME280;38537;47.226;39.702;2023-03-01T05:31:15;100912.75;;;1.98;59.75
52651;BME280;38537;47.226;39.702;2023-03-01T05:33:42;100886.28;;;1.97;60.17
52651;BME280;38537;47.226;39.702;2023-03-01T05:36:10;100891.81;;;2.09;59.60
52651;BME280;38537;47.226;39.702;2023-03-01T05:38:38;100879.47;;;2.00;59.96
52651;BME280;38537;47.226;39.702;2023-03-01T05:41:05;100881.38;;;2.34;59.74
52651;BME280;38537;47.226;39.702;2023-03-01T05:43:40;100905.50;;;2.79;58.44
52651;BME280;38537;47.226;39.702;2023-03-01T05:46:10;100877.94;;;2.67;58.46
52651;BME280;38537;47.226;39.702;2023-03-01T05:48:39;100897.78;;;2.93;58.29
52651;BME280;38537;47.226;39.702;2023-03-01T05:51:06;100884.03;;;2.81;58.13
52651;BME280;38537;47.226;39.702;2023-03-01T05:53:34;100863.84;;;2.92;58.45
52651;BME280;38537;47.226;39.702;2023-03-01T05:56:03;100862.28;;;3.25;57.97
52651;BME280;38537;47.226;39.702;2023-03-01T05:58:32;100839.63;;;3.39;57.48
52651;BME280;38537;47.226;39.702;2023-03-01T06:00:59;100839.69;;;3.78;57.31
52651;BME280;38537;47.226;39.702;2023-03-01T06:03:27;100854.34;;;3.95;56.09
52651;BME280;38537;47.226;39.702;2023-03-01T06:05:58;100850.69;;;4.28;55.37
52651;BME280;38537;47.226;39.702;2023-03-01T06:08:25;100837.25;;;4.37;55.02
52651;BME280;38537;47.226;39.702;2023-03-01T06:10:54;100864.81;;;4.70;55.24
52651;BME280;38537;47.226;39.702;2023-03-01T06:13:22;100858.88;;;4.83;55.11
52651;BME280;38537;47.226;39.702;2023-03-01T06:15:50;100846.34;;;5.03;54.20
52651;BME280;38537;47.226;39.702;2023-03-01T06:18:18;100853.69;;;5.14;53.54
52651;BME280;38537;47.226;39.702;2023-03-01T06:20:52;100848.75;;;5.21;53.67
52651;BME280;38537;47.226;39.702;2023-03-01T06:23:20;100869.72;;;5.12;53.80
52651;BME280;38537;47.226;39.702;2023-03-01T06:25:47;100879.34;;;4.82;53.50
52651;BME280;38537;47.226;39.702;2023-03-01T06:28:15;100849.72;;;4.83;53.93
52651;BME280;38537;47.226;39.702;2023-03-01T06:30:42;100842.75;;;4.75;53.59
52651;BME280;38537;47.226;39.702;2023-03-01T06:33:12;100855.25;;;4.83;53.88
52651;BME280;38537;47.226;39.702;2023-03-01T06:35:40;100893.88;;;4.95;53.52
52651;BME280;38537;47.226;39.702;2023-03-01T06:38:07;100871.34;;;4.86;53.18
52651;BME280;38537;47.226;39.702;2023-03-01T06:40:35;100837.00;;;4.82;54.06
52651;BME280;38537;47.226;39.702;2023-03-01T06:43:02;100837.16;;;5.19;53.47
52651;BME280;38537;47.226;39.702;2023-03-01T06:45:29;100827.63;;;5.10;52.55
52651;BME280;38537;47.226;39.702;2023-03-01T06:48:07;100832.25;;;5.04;52.83
52651;BME280;38537;47.226;39.702;2023-03-01T06:50:35;100851.22;;;4.91;52.92
52651;BME280;38537;47.226;39.702;2023-03-01T06:53:03;100863.50;;;4.56;53.02
52651;BME280;38537;47.226;39.702;2023-03-01T06:55:33;100866.63;;;4.21;53.01
52651;BME280;38537;47.226;39.702;2023-03-01T06:58:02;100886.84;;;4.43;53.86
52651;BME280;38537;47.226;39.702;2023-03-01T07:00:30;100865.09;;;4.13;53.34
52651;BME280;38537;47.226;39.702;2023-03-01T07:02:59;100866.41;;;4.06;54.10
52651;BME280;38537;47.226;39.702;2023-03-01T07:05:27;100864.75;;;3.88;53.79
52651;BME280;38537;47.226;39.702;2023-03-01T07:07:54;100866.56;;;4.38;54.05
52651;BME280;38537;47.226;39.702;2023-03-01T07:10:23;100836.66;;;4.35;53.62
52651;BME280;38537;47.226;39.702;2023-03-01T07:12:54;100868.94;;;4.29;53.51
52651;BME280;38537;47.226;39.702;2023-03-01T07:15:22;100841.66;;;4.16;53.60
52651;BME280;38537;47.226;39.702;2023-03-01T07:17:49;100861.00;;;4.33;53.87
52651;BME280;38537;47.226;39.702;2023-03-01T07:20:18;100852.25;;;4.41;54.40
52651;BME280;38537;47.226;39.702;2023-03-01T07:22:49;100851.91;;;4.37;53.94
52651;BME280;38537;47.226;39.702;2023-03-01T07:25:16;100878.13;;;4.35;52.61
52651;BME280;38537;47.226;39.702;2023-03-01T07:27:43;100843.13;;;4.02;53.15
52651;BME280;38537;47.226;39.702;2023-03-01T07:30:15;100869.56;;;3.98;53.56
52651;BME280;38537;47.226;39.702;2023-03-01T07:32:43;100871.31;;;3.70;53.69
52651;BME280;38537;47.226;39.702;2023-03-01T07:35:10;100858.00;;;3.51;54.37
52651;BME280;38537;47.226;39.702;2023-03-01T07:37:37;100842.22;;;3.46;55.01
52651;BME280;38537;47.226;39.702;2023-03-01T07:40:06;100836.63;;;3.41;54.81
52651;BME280;38537;47.226;39.702;2023-03-01T07:42:35;100861.28;;;3.48;54.61
52651;BME280;38537;47.226;39.702;2023-03-01T07:45:05;100861.09;;;3.37;54.74
52651;BME280;38537;47.226;39.702;2023-03-01T07:47:32;100861.84;;;3.33;54.61
52651;BME280;38537;47.226;39.702;2023-03-01T07:50:00;100839.53;;;3.51;55.63
52651;BME280;38537;47.226;39.702;2023-03-01T07:52:29;100837.28;;;3.65;55.00
52651;BME280;38537;47.226;39.702;2023-03-01T07:54:56;100844.06;;;3.74;55.09
52651;BME280;38537;47.226;39.702;2023-03-01T07:57:23;100848.56;;;3.97;55.01
52651;BME280;38537;47.226;39.702;2023-03-01T07:59:51;100841.19;;;4.02;54.69
52651;BME280;38537;47.226;39.702;2023-03-01T08:02:18;100842.28;;;4.40;54.59
52651;BME280;38537;47.226;39.702;2023-03-01T08:04:46;100810.25;;;4.66;54.63
52651;BME280;38537;47.226;39.702;2023-03-01T08:07:13;100806.91;;;5.12;53.59
52651;BME280;38537;47.226;39.702;2023-03-01T08:09:40;100809.31;;;5.63;51.99
52651;BME280;38537;47.226;39.702;2023-03-01T08:12:07;100826.47;;;5.97;51.23
52651;BME280;38537;47.226;39.702;2023-03-01T08:14:34;100795.38;;;5.90;50.88
52651;BME280;38537;47.226;39.702;2023-03-01T08:17:02;100787.69;;;5.97;51.19
52651;BME280;38537;47.226;39.702;2023-03-01T08:19:30;100796.50;;;6.41;52.15
52651;BME280;38537;47.226;39.702;2023-03-01T08:21:57;100782.47;;;6.63;50.42
52651;BME280;38537;47.226;39.702;2023-03-01T08:24:25;100790.88;;;6.88;50.68
52651;BME280;38537;47.226;39.702;2023-03-01T08:26:53;100798.91;;;6.84;50.58
52651;BME280;38537;47.226;39.702;2023-03-01T08:29:20;100788.28;;;6.71;49.98
52651;BME280;38537;47.226;39.702;2023-03-01T08:31:48;100773.81;;;6.49;49.57
52651;BME280;38537;47.226;39.702;2023-03-01T08:34:16;100775.47;;;6.55;50.12
52651;BME280;38537;47.226;39.702;2023-03-01T08:36:45;100805.41;;;6.43;49.45
52651;BME280;38537;47.226;39.702;2023-03-01T08:39:17;100745.91;;;6.13;50.30
52651;BME280;38537;47.226;39.702;2023-03-01T08:41:46;100751.50;;;6.24;50.00
52651;BME280;38537;47.226;39.702;2023-03-01T08:44:15;100751.38;;;5.98;49.50
52651;BME280;38537;47.226;39.702;2023-03-01T08:46:47;100753.91;;;6.05;49.82
52651;BME280;38537;47.226;39.702;2023-03-01T08:49:18;100749.22;;;6.05;49.69
52651;BME280;38537;47.226;39.702;2023-03-01T08:51:46;100748.22;;;6.32;50.00
52651;BME280;38537;47.226;39.702;2023-03-01T08:54:19;100728.34;;;6.60;50.42
52651;BME280;38537;47.226;39.702;2023-03-01T08:56:48;100748.97;;;6.90;49.39
52651;BME280;38537;47.226;39.702;2023-03-01T08:59:16;100752.53;;;6.70;48.40
52651;BME280;38537;47.226;39.702;2023-03-01T09:01:45;100724.16;;;6.47;48.45
52651;BME280;38537;47.226;39.702;2023-03-01T09:04:14;100706.63;;;6.27;49.34
52651;BME280;38537;47.226;39.702;2023-03-01T09:06:42;100723.31;;;6.47;49.63
52651;BME280;38537;47.226;39.702;2023-03-01T09:09:14;100711.63;;;6.40;49.39
52651;BME280;38537;47.226;39.702;2023-03-01T09:11:43;100705.06;;;6.66;50.08
52651;BME280;38537;47.226;39.702;2023-03-01T09:14:14;100710.91;;;6.95;49.20
52651;BME280;38537;47.226;39.702;2023-03-01T09:16:41;100680.94;;;6.97;49.41
52651;BME280;38537;47.226;39.702;2023-03-01T09:19:09;100715.66;;;7.40;49.19
52651;BME280;38537;47.226;39.702;2023-03-01T09:21:37;100704.00;;;7.33;48.09
52651;BME280;38537;47.226;39.702;2023-03-01T09:24:14;100671.22;;;7.25;48.32
52651;BME280;38537;47.226;39.702;2023-03-01T09:26:42;100681.50;;;7.35;48.03
52651;BME280;38537;47.226;39.702;2023-03-01T09:29:09;100661.75;;;7.36;48.39
52651;BME280;38537;47.226;39.702;2023-03-01T09:31:37;100672.34;;;7.34;48.35
52651;BME280;38537;47.226;39.702;2023-03-01T09:34:05;100671.16;;;7.71;48.75
52651;BME280;38537;47.226;39.702;2023-03-01T09:36:33;100657.75;;;7.83;48.56
52651;BME280;38537;47.226;39.702;2023-03-01T09:39:01;100670.75;;;8.08;47.77
52651;BME280;38537;47.226;39.702;2023-03-01T09:41:38;100672.13;;;8.10;47.47
52651;BME280;38537;47.226;39.702;2023-03-01T09:44:12;100686.31;;;8.09;47.22
52651;BME280;38537;47.226;39.702;2023-03-01T09:46:44;100657.66;;;8.18;47.83
52651;BME280;38537;47.226;39.702;2023-03-01T09:49:18;100651.38;;;8.47;47.27
52651;BME280;38537;47.226;39.702;2023-03-01T09:51:55;100633.34;;;8.83;47.01
52651;BME280;38537;47.226;39.702;2023-03-01T09:54:22;100638.41;;;8.76;45.49
52651;BME280;38537;47.226;39.702;2023-03-01T10:04:55;100644.41;;;7.95;45.25
52651;BME280;38537;47.226;39.702;2023-03-01T10:07:44;100620.25;;;7.80;45.76
52651;BME280;38537;47.226;39.702;2023-03-01T10:10:23;100635.88;;;8.31;47.23
52651;BME280;38537;47.226;39.702;2023-03-01T10:12:53;100629.72;;;8.44;45.88
52651;BME280;38537;47.226;39.702;2023-03-01T10:15:35;100615.47;;;8.50;45.59
52651;BME280;38537;47.226;39.702;2023-03-01T10:18:16;100628.78;;;8.58;44.74
52651;BME280;38537;47.226;39.702;2023-03-01T10:21:00;100612.19;;;8.43;44.68
52651;BME280;38537;47.226;39.702;2023-03-01T10:23:31;100623.41;;;8.67;45.49
52651;BME280;38537;47.226;39.702;2023-03-01T10:26:18;100622.69;;;8.90;45.31
52651;BME280;38537;47.226;39.702;2023-03-01T10:29:10;100620.19;;;9.23;44.07
52651;BME280;38537;47.226;39.702;2023-03-01T10:36:43;100603.75;;;9.50;44.53
52651;BME280;38537;47.226;39.702;2023-03-01T10:39:18;100615.13;;;9.78;44.09
52651;BME280;38537;47.226;39.702;2023-03-01T10:42:00;100597.69;;;9.91;44.05
52651;BME280;38537;47.226;39.702;2023-03-01T10:47:16;100603.84;;;9.64;42.23
52651;BME280;38537;47.226;39.702;2023-03-01T10:52:28;100592.28;;;9.28;44.16
52651;BME280;38537;47.226;39.702;2023-03-01T10:55:03;100593.31;;;9.32;43.82
52651;BME280;38537;47.226;39.702;2023-03-01T10:57:40;100583.91;;;8.99;43.29
52651;BME280;38537;47.226;39.702;2023-03-01T11:00:24;100575.81;;;9.03;44.01
52651;BME280;38537;47.226;39.702;2023-03-01T11:05:26;100550.06;;;8.87;44.23
52651;BME280;38537;47.226;39.702;2023-03-01T11:07:59;100554.16;;;8.94;43.59
52651;BME280;38537;47.226;39.702;2023-03-01T11:10:35;100556.94;;;9.23;44.55
52651;BME280;38537;47.226;39.702;2023-03-01T11:13:16;100563.88;;;9.26;43.77
52651;BME280;38537;47.226;39.702;2023-03-01T11:15:59;100527.53;;;8.83;43.87
52651;BME280;38537;47.226;39.702;2023-03-01T11:18:32;100530.78;;;9.19;44.49
52651;BME280;38537;47.226;39.702;2023-03-01T11:21:13;100529.03;;;9.52;44.30
52651;BME280;38537;47.226;39.702;2023-03-01T11:23:43;100507.84;;;9.51;43.92
52651;BME280;38537;47.226;39.702;2023-03-01T11:26:13;100502.03;;;9.24;43.92
52651;BME280;38537;47.226;39.702;2023-03-01T11:28:44;100524.38;;;9.43;44.57
52651;BME280;38537;47.226;39.702;2023-03-01T11:31:14;100515.38;;;9.51;44.12
52651;BME280;38537;47.226;39.702;2023-03-01T11:34:17;100493.06;;;9.51;43.49
52651;BME280;38537;47.226;39.702;2023-03-01T11:36:52;100497.94;;;9.83;43.98
52651;BME280;38537;47.226;39.702;2023-03-01T11:39:58;100495.03;;;10.30;44.17
52651;BME280;38537;47.226;39.702;2023-03-01T11:42:19;100517.34;;;10.30;43.58
52651;BME280;38537;47.226;39.702;2023-03-01T11:44:52;100502.09;;;10.42;43.03
52651;BME280;38537;47.226;39.702;2023-03-01T11:58:27;100513.09;;;9.53;42.86
52651;BME280;38537;47.226;39.702;2023-03-01T12:01:21;100513.56;;;9.60;44.13
52651;BME280;38537;47.226;39.702;2023-03-01T12:06:57;100489.63;;;9.96;43.80
52651;BME280;38537;47.226;39.702;2023-03-01T12:20:20;100507.19;;;9.78;43.02
52651;BME280;38537;47.226;39.702;2023-03-01T12:25:58;100500.66;;;9.45;42.63
52651;BME280;38537;47.226;39.702;2023-03-01T12:37:16;100489.53;;;9.21;44.04
52651;BME280;38537;47.226;39.702;2023-03-01T12:42:41;100490.69;;;9.39;43.95
52651;BME280;38537;47.226;39.702;2023-03-01T12:45:26;100483.41;;;9.43;44.47
52651;BME280;38537;47.226;39.702;2023-03-01T12:50:59;100452.78;;;9.62;43.18
52651;BME280;38537;47.226;39.702;2023-03-01T12:53:35;100454.75;;;9.80;43.58
52651;BME280;38537;47.226;39.702;2023-03-01T12:56:09;100445.78;;;9.83;43.55
52651;BME280;38537;47.226;39.702;2023-03-01T12:58:46;100473.81;;;10.11;43.59
52651;BME280;38537;47.226;39.702;2023-03-01T13:06:51;100451.56;;;10.24;43.22
52651;BME280;38537;47.226;39.702;2023-03-01T13:09:36;100473.19;;;10.51;42.07
52651;BME280;38537;47.226;39.702;2023-03-01T13:17:53;100475.41;;;10.17;42.36
52651;BME280;38537;47.226;39.702;2023-03-01T13:20:26;100452.25;;;9.79;42.67
52651;BME280;38537;47.226;39.702;2023-03-01T13:23:11;100463.28;;;9.89;43.22
52651;BME280;38537;47.226;39.702;2023-03-01T13:26:22;100474.72;;;10.06;43.28
52651;BME280;38537;47.226;39.702;2023-03-01T13:41:59;100436.19;;;10.08;42.99
52651;BME280;38537;47.226;39.702;2023-03-01T13:44:33;100462.59;;;10.35;43.17
52651;BME280;38537;47.226;39.702;2023-03-01T13:47:12;100470.97;;;10.16;42.39
52651;BME280;38537;47.226;39.702;2023-03-01T13:54:57;100458.44;;;10.13;42.41
52651;BME280;38537;47.226;39.702;2023-03-01T13:57:30;100451.13;;;10.17;42.71
52651;BME280;38537;47.226;39.702;2023-03-01T14:00:00;100463.94;;;10.37;42.68
52651;BME280;38537;47.226;39.702;2023-03-01T14:02:29;100419.69;;;10.12;42.31
52651;BME280;38537;47.226;39.702;2023-03-01T14:04:58;100438.97;;;10.08;42.68
52651;BME280;38537;47.226;39.702;2023-03-01T14:07:27;100474.25;;;9.99;42.99
52651;BME280;38537;47.226;39.702;2023-03-01T14:10:01;100466.13;;;10.03;43.07
52651;BME280;38537;47.226;39.702;2023-03-01T14:15:33;100476.53;;;10.16;43.67
52651;BME280;38537;47.226;39.702;2023-03-01T14:20:37;100475.00;;;9.48;43.67
52651;BME280;38537;47.226;39.702;2023-03-01T14:23:16;100430.88;;;9.32;43.91
52651;BME280;38537;47.226;39.702;2023-03-01T14:25:48;100464.53;;;9.78;43.60
52651;BME280;38537;47.226;39.702;2023-03-01T14:28:26;100496.97;;;9.74;43.29
52651;BME280;38537;47.226;39.702;2023-03-01T14:30:58;100480.41;;;9.58;43.76
52651;BME280;38537;47.226;39.702;2023-03-01T14:33:36;100461.13;;;9.43;43.94
52651;BME280;38537;47.226;39.702;2023-03-01T14:36:09;100471.84;;;9.31;44.01
52651;BME280;38537;47.226;39.702;2023-03-01T14:38:39;100478.19;;;9.13;44.60
52651;BME280;38537;47.226;39.702;2023-03-01T14:41:11;100476.59;;;9.07;45.01
52651;BME280;38537;47.226;39.702;2023-03-01T14:43:44;100493.63;;;8.76;45.11
52651;BME280;38537;47.226;39.702;2023-03-01T14:46:36;100490.50;;;8.54;45.31
52651;BME280;38537;47.226;39.702;2023-03-01T14:49:16;100494.38;;;8.19;46.26
52651;BME280;38537;47.226;39.702;2023-03-01T14:52:02;100471.94;;;8.05;46.38
52651;BME280;38537;47.226;39.702;2023-03-01T14:54:47;100493.88;;;8.07;46.63
52651;BME280;38537;47.226;39.702;2023-03-01T14:59:43;100489.44;;;7.62;46.95
52651;BME280;38537;47.226;39.702;2023-03-01T15:02:17;100510.44;;;7.83;47.43
52651;BME280;38537;47.226;39.702;2023-03-01T15:04:55;100508.94;;;7.56;47.47
52651;BME280;38537;47.226;39.702;2023-03-01T15:07:33;100510.88;;;7.51;47.51